Dera Bugti Weather



Dera Bugti's Current Weather

Temprature 12.48o light rain

light rain

Rain: 169 %

Min Temprature12.48o
Max Temprature12.48o
Humidity68
Wind Speed4.2 m/h
Sun Rise07:07:20
Sun Set17:26:35
Current Time: 12-Dec-2019 01:28:31
Lat/Lon: 29.03, 69.15




Dera Bugti's Geo Location



Dera Bugti's Weather Forecast

Time Overall Temp Min Temp Max Temp Humidity Wind Speed Rain
12-Dec-2019 (Thu)
02:00:00 light rain 12.480 12.480 12.480 68 4.2 m/h 169 %
05:00:00 light rain 12.170 12.170 12.170 75 3.05 m/h 131 %
08:00:00 light rain 12.440 12.440 12.440 74 2.14 m/h 275 %
11:00:00 light rain 13.110 13.110 13.110 67 0.84 m/h 6 %
14:00:00 overcast clouds 14.490 14.490 14.490 62 0.63 m/h 0 %
17:00:00 light rain 14.360 14.360 14.360 65 2.34 m/h 6 %
20:00:00 light rain 13.400 13.400 13.400 67 2.26 m/h 13 %
23:00:00 light rain 12.200 12.200 12.200 62 2.42 m/h 6 %
13-Dec-2019 (Fri)
02:00:00 scattered clouds 10.830 10.830 10.830 66 0.63 m/h 0 %
05:00:00 scattered clouds 10.480 10.480 10.480 68 2.04 m/h 0 %
08:00:00 broken clouds 10.460 10.460 10.460 74 2.52 m/h 0 %
11:00:00 scattered clouds 13.560 13.560 13.560 60 4.54 m/h 0 %
14:00:00 clear sky 16.050 16.050 16.050 44 6.53 m/h 0 %
17:00:00 clear sky 15.460 15.460 15.460 35 3.55 m/h 0 %
20:00:00 clear sky 13.200 13.200 13.200 45 2.2 m/h 0 %
23:00:00 few clouds 12.010 12.010 12.010 50 1.83 m/h 0 %
14-Dec-2019 (Sat)
02:00:00 clear sky 10.910 10.910 10.910 52 1.23 m/h 0 %
05:00:00 clear sky 10.040 10.040 10.040 52 0.65 m/h 0 %
08:00:00 clear sky 11.000 11.000 11.000 46 0.48 m/h 0 %
11:00:00 scattered clouds 16.310 16.310 16.310 29 1.27 m/h 0 %
14:00:00 broken clouds 17.390 17.390 17.390 31 2.75 m/h 0 %
17:00:00 broken clouds 16.450 16.450 16.450 35 3.25 m/h 0 %
20:00:00 broken clouds 14.700 14.700 14.700 43 4 m/h 0 %
23:00:00 overcast clouds 13.710 13.710 13.710 47 2.3 m/h 0 %
15-Dec-2019 (Sun)
02:00:00 broken clouds 12.470 12.470 12.470 52 1.48 m/h 0 %
05:00:00 scattered clouds 11.250 11.250 11.250 56 1.42 m/h 0 %
08:00:00 few clouds 11.740 11.740 11.740 56 1.07 m/h 0 %
11:00:00 scattered clouds 15.550 15.550 15.550 42 0.92 m/h 0 %
14:00:00 scattered clouds 16.910 16.910 16.910 37 1.59 m/h 0 %
17:00:00 few clouds 16.610 16.610 16.610 39 2.27 m/h 0 %
20:00:00 clear sky 14.280 14.280 14.280 50 1.66 m/h 0 %
23:00:00 clear sky 12.590 12.590 12.590 57 0.29 m/h 0 %
16-Dec-2019 (Mon)
02:00:00 clear sky 11.550 11.550 11.550 60 0.74 m/h 0 %
05:00:00 clear sky 10.700 10.700 10.700 63 0.71 m/h 0 %
08:00:00 clear sky 11.340 11.340 11.340 61 0.43 m/h 0 %
11:00:00 clear sky 15.500 15.500 15.500 45 1.38 m/h 0 %
14:00:00 clear sky 17.170 17.170 17.170 40 3.01 m/h 0 %
17:00:00 clear sky 16.670 16.670 16.670 42 2.61 m/h 0 %
20:00:00 clear sky 14.370 14.370 14.370 51 2.14 m/h 0 %
23:00:00 clear sky 12.590 12.590 12.590 58 0.89 m/h 0 %

Famous Cities (61)